Time;durP1;ratioP1;P1;durP2;ratioP2;P2;SDS_P1;SDS_P2;PMS_P1;PMS_P2;Temp;Humidity;BMP_temperature;BMP_pressure;BME280_temperature;BME280_humidity;BME280_pressure;Samples;Min_cycle;Max_cycle;Signal;HPM_P1;HPM_P2
2023/12/23 00:00:56;;;;;;;0.40;0.10;;;;;;;-142.06;100.00;64312.41;5021497;28;20208;-82
2023/12/23 00:03:22;;;;;;;0.17;0.10;;;;;;;-142.06;100.00;64312.41;5037961;28;21278;-79
2023/12/23 00:05:50;;;;;;;0.43;0.13;;;;;;;-142.06;100.00;64312.41;5037371;28;20288;-82
2023/12/23 00:08:17;;;;;;;5.13;3.77;;;;;;;-142.06;100.00;64312.41;5056890;28;20264;-81
2023/12/23 00:10:43;;;;;;;0.20;0.10;;;;;;;-142.06;100.00;64312.41;5029855;28;20194;-81
2023/12/23 00:13:10;;;;;;;0.20;0.20;;;;;;;-142.06;100.00;64312.41;5053655;28;20193;-80
2023/12/23 00:15:37;;;;;;;0.30;0.30;;;;;;;-142.06;100.00;64312.41;5027783;28;20690;-81
2023/12/23 00:18:04;;;;;;;0.40;0.40;;;;;;;-142.06;100.00;64312.41;5052589;28;20201;-83
2023/12/23 00:20:31;;;;;;;0.60;0.50;;;;;;;-142.06;100.00;64312.41;5017172;28;20202;-81
2023/12/23 00:22:59;;;;;;;0.80;0.40;;;;;;;-142.06;100.00;64312.41;5020655;28;20217;-80
2023/12/23 00:25:26;;;;;;;0.60;0.60;;;;;;;-142.06;100.00;64312.41;5052443;28;20218;-81
2023/12/23 00:27:53;;;;;;;0.90;0.90;;;;;;;-142.06;100.00;64312.41;5053451;28;20210;-80
2023/12/23 00:30:20;;;;;;;0.73;0.73;;;;;;;-142.06;100.00;64312.41;5047034;28;20205;-81
2023/12/23 00:32:47;;;;;;;1.00;1.00;;;;;;;-142.06;100.00;64312.41;5051802;28;20190;-80
2023/12/23 00:35:13;;;;;;;1.30;1.20;;;;;;;-142.06;100.00;64312.41;5033387;28;20220;-81
2023/12/23 00:37:41;;;;;;;1.60;1.50;;;;;;;-142.06;100.00;64312.41;5035621;28;20194;-80
2023/12/23 00:40:08;;;;;;;0.87;0.83;;;;;;;-142.06;100.00;64312.41;5052184;28;20195;-80
2023/12/23 00:42:36;;;;;;;0.80;0.80;;;;;;;-142.06;100.00;64312.41;5059770;28;20665;-80
2023/12/23 00:45:05;;;;;;;0.53;0.53;;;;;;;-142.06;100.00;64312.41;5022013;28;20197;-80
2023/12/23 00:47:32;;;;;;;3.33;3.10;;;;;;;-142.06;100.00;64312.41;5021394;28;20202;-79
2023/12/23 00:50:04;;;;;;;1.30;1.20;;;;;;;-142.06;100.00;64312.41;5052571;28;20190;-80
2023/12/23 00:52:31;;;;;;;0.93;0.73;;;;;;;-142.06;100.00;64312.41;5035494;28;20193;-82
2023/12/23 00:54:59;;;;;;;1.60;0.90;;;;;;;-142.06;100.00;64312.41;5035666;28;20194;-80
2023/12/23 00:57:27;;;;;;;0.60;0.60;;;;;;;-142.06;100.00;64312.41;5046768;28;20194;-81
2023/12/23 00:59:57;;;;;;;1.83;1.67;;;;;;;-142.06;100.00;64312.41;5034719;28;20197;-82
2023/12/23 01:02:24;;;;;;;2.40;2.20;;;;;;;-142.06;100.00;64312.41;5047298;28;20178;-80
2023/12/23 01:04:54;;;;;;;2.17;1.70;;;;;;;-142.06;100.00;64312.41;5034674;28;20193;-81
2023/12/23 01:07:21;;;;;;;1.83;1.37;;;;;;;-142.06;100.00;64312.41;5044434;28;20196;-79
2023/12/23 01:09:47;;;;;;;0.80;0.80;;;;;;;-142.06;100.00;64312.41;5036062;28;20201;-80
2023/12/23 01:12:14;;;;;;;0.93;0.93;;;;;;;-142.06;100.00;64312.41;5035892;28;20251;-80
2023/12/23 01:14:41;;;;;;;1.10;1.00;;;;;;;-142.06;100.00;64312.41;5036724;28;20200;-79
2023/12/23 01:17:08;;;;;;;2.07;1.50;;;;;;;-142.06;100.00;64312.41;5052588;28;20197;-81
2023/12/23 01:19:34;;;;;;;2.07;1.97;;;;;;;-142.06;100.00;64312.41;5048012;28;20307;-79
2023/12/23 01:22:01;;;;;;;1.60;1.50;;;;;;;-142.06;100.00;64312.41;5040669;28;20198;-80
2023/12/23 01:24:28;;;;;;;1.63;1.40;;;;;;;-142.06;100.00;64312.41;5052924;28;20217;-79
2023/12/23 01:26:57;;;;;;;0.93;0.90;;;;;;;-142.06;100.00;64312.41;5020744;28;20195;-80
2023/12/23 01:29:24;;;;;;;0.80;0.80;;;;;;;-142.06;100.00;64312.41;5020516;28;20196;-80
2023/12/23 01:31:51;;;;;;;0.60;0.60;;;;;;;-142.06;100.00;64312.41;5036421;28;20189;-84
2023/12/23 01:34:17;;;;;;;4.43;0.60;;;;;;;-142.06;100.00;64312.41;5020052;28;20193;-82
2023/12/23 01:36:44;;;;;;;0.90;0.90;;;;;;;-142.06;100.00;64312.41;5036557;28;20221;-83
2023/12/23 01:39:13;;;;;;;1.13;1.10;;;;;;;-142.06;100.00;64312.41;5037236;28;20281;-84
2023/12/23 01:41:39;;;;;;;2.70;2.50;;;;;;;-142.06;100.00;64312.41;5036477;28;20187;-81
2023/12/23 01:44:06;;;;;;;0.70;0.70;;;;;;;-142.06;100.00;64312.41;5020588;28;20209;-83
2023/12/23 01:46:33;;;;;;;2.57;2.37;;;;;;;-142.06;100.00;64312.41;5036515;28;20185;-82
2023/12/23 01:49:01;;;;;;;2.70;2.50;;;;;;;-142.06;100.00;64312.41;5053025;28;20189;-84
2023/12/23 01:51:28;;;;;;;1.83;1.67;;;;;;;-142.06;100.00;64312.41;5020441;28;20214;-85
2023/12/23 01:54:02;;;;;;;5.33;4.93;;;;;;;-142.06;100.00;64312.41;5020352;28;20189;-84
2023/12/23 01:56:29;;;;;;;3.37;3.07;;;;;;;-142.06;100.00;64312.41;5036595;28;20192;-81
2023/12/23 01:58:56;;;;;;;2.13;1.93;;;;;;;-142.06;100.00;64312.41;5036900;28;20680;-81
2023/12/23 02:01:23;;;;;;;2.30;2.10;;;;;;;-142.06;100.00;64312.41;5020571;28;20196;-85
2023/12/23 02:03:50;;;;;;;2.10;1.67;;;;;;;-142.06;100.00;64312.41;5020209;28;20209;-82
2023/12/23 02:06:17;;;;;;;2.20;1.80;;;;;;;-142.06;100.00;64312.41;5020109;28;20288;-82
2023/12/23 02:08:45;;;;;;;2.60;1.97;;;;;;;-142.06;100.00;64312.41;5020892;28;20189;-83
2023/12/23 02:11:22;;;;;;;2.03;1.70;;;;;;;-142.06;100.00;64312.41;5036754;28;20190;-81
2023/12/23 02:14:06;;;;;;;2.53;2.00;;;;;;;-142.06;100.00;64312.41;5020100;28;20189;-81
2023/12/23 02:16:34;;;;;;;3.53;2.00;;;;;;;-142.06;100.00;64312.41;5052859;28;20682;-81
2023/12/23 02:19:01;;;;;;;2.40;1.93;;;;;;;-142.06;100.00;64312.41;5036443;28;20186;-81
2023/12/23 02:21:28;;;;;;;2.00;1.70;;;;;;;-142.06;100.00;64312.41;5035801;28;20729;-82
2023/12/23 02:23:55;;;;;;;2.67;1.70;;;;;;;-142.06;100.00;64312.41;5019689;28;20271;-83
2023/12/23 02:26:25;;;;;;;2.67;1.73;;;;;;;-142.06;100.00;64312.41;5054435;28;20186;-79
2023/12/23 02:28:52;;;;;;;2.10;1.60;;;;;;;-142.06;100.00;64312.41;5056597;28;20209;-81
2023/12/23 02:31:20;;;;;;;2.00;1.80;;;;;;;-142.06;100.00;64312.41;5039824;28;20189;-81
2023/12/23 02:33:47;;;;;;;2.10;1.60;;;;;;;-142.06;100.00;64312.41;5040076;28;20196;-81
2023/12/23 02:36:22;;;;;;;3.30;1.60;;;;;;;-142.06;100.00;64312.41;5023672;28;20233;-81
2023/12/23 02:38:49;;;;;;;1.50;1.40;;;;;;;-142.06;100.00;64312.41;5023179;28;20220;-80
2023/12/23 02:41:16;;;;;;;1.53;1.37;;;;;;;-142.06;100.00;64312.41;5039507;28;20239;-82
2023/12/23 02:43:43;;;;;;;2.73;1.90;;;;;;;-142.06;100.00;64312.41;5039376;28;20214;-81
2023/12/23 02:46:10;;;;;;;3.00;2.40;;;;;;;-142.06;100.00;64312.41;5039253;28;20701;-81
2023/12/23 02:48:37;;;;;;;4.23;3.37;;;;;;;-142.06;100.00;64312.41;5039417;28;20190;-80
2023/12/23 02:51:04;;;;;;;6.53;4.83;;;;;;;-142.06;100.00;64312.41;5039177;28;20200;-81
2023/12/23 02:53:31;;;;;;;7.40;5.20;;;;;;;-142.06;100.00;64312.41;5039201;28;20185;-80
2023/12/23 02:55:59;;;;;;;5.43;3.70;;;;;;;-142.06;100.00;64312.41;5022754;28;20662;-81
2023/12/23 02:58:26;;;;;;;2.20;2.00;;;;;;;-142.06;100.00;64312.41;5039294;28;20186;-82
2023/12/23 03:00:53;;;;;;;1.83;1.30;;;;;;;-142.06;100.00;64312.41;5055594;28;20186;-81
2023/12/23 03:03:20;;;;;;;1.90;1.03;;;;;;;-142.06;100.00;64312.41;5039280;28;20341;-81
2023/12/23 03:05:46;;;;;;;1.30;1.00;;;;;;;-142.06;100.00;64312.41;5022417;28;20228;-80
2023/12/23 03:08:13;;;;;;;0.87;0.83;;;;;;;-142.06;100.00;64312.41;5022504;28;20206;-83
2023/12/23 03:10:40;;;;;;;0.63;0.63;;;;;;;-142.06;100.00;64312.41;5055574;28;20280;-82
2023/12/23 03:13:07;;;;;;;0.53;0.50;;;;;;;-142.06;100.00;64312.41;5039025;28;20181;-83
2023/12/23 03:15:34;;;;;;;0.47;0.40;;;;;;;-142.06;100.00;64312.41;5022371;28;20201;-81
2023/12/23 03:18:01;;;;;;;0.30;0.30;;;;;;;-142.06;100.00;64312.41;5038964;28;20192;-81
2023/12/23 03:20:28;;;;;;;0.20;0.20;;;;;;;-142.06;100.00;64312.41;5022456;28;20186;-82
2023/12/23 03:22:56;;;;;;;1.17;0.27;;;;;;;-142.06;100.00;64312.41;5038804;28;20193;-82
2023/12/23 03:25:22;;;;;;;0.20;0.20;;;;;;;-142.06;100.00;64312.41;5022132;28;20217;-81
2023/12/23 03:27:49;;;;;;;0.30;0.30;;;;;;;-142.06;100.00;64312.41;5021890;28;20209;-81
2023/12/23 03:30:16;;;;;;;0.20;0.20;;;;;;;-142.06;100.00;64312.41;5038545;28;20197;-82
2023/12/23 03:32:43;;;;;;;0.20;0.20;;;;;;;-142.06;100.00;64312.41;5038693;28;20228;-81
2023/12/23 03:35:10;;;;;;;0.10;0.10;;;;;;;-142.06;100.00;64312.41;5021908;28;20193;-80
2023/12/23 03:37:37;;;;;;;0.20;0.20;;;;;;;-142.06;100.00;64312.41;5038440;28;20261;-80
2023/12/23 03:40:04;;;;;;;0.77;0.10;;;;;;;-142.06;100.00;64312.41;5055098;28;20289;-80
2023/12/23 03:42:31;;;;;;;0.10;0.10;;;;;;;-142.06;100.00;64312.41;5022013;28;20197;-82
2023/12/23 03:44:58;;;;;;;0.10;0.10;;;;;;;-142.06;100.00;64312.41;5038237;28;20689;-81
2023/12/23 03:47:24;;;;;;;0.03;0.03;;;;;;;-142.06;100.00;64312.41;5022005;28;20206;-80
2023/12/23 03:49:52;;;;;;;0.17;0.10;;;;;;;-142.06;100.00;64312.41;5054926;28;20542;-82
2023/12/23 03:52:19;;;;;;;0.50;0.10;;;;;;;-142.06;100.00;64312.41;5038404;28;20198;-81
2023/12/23 03:54:46;;;;;;;0.17;0.10;;;;;;;-142.06;100.00;64312.41;5038321;28;20197;-83
2023/12/23 03:57:15;;;;;;;0.07;0.07;;;;;;;-142.06;100.00;64312.41;5022243;28;20201;-79
2023/12/23 03:59:43;;;;;;;1.90;0.10;;;;;;;-142.06;100.00;64312.41;5022200;28;20285;-80
2023/12/23 04:02:10;;;;;;;0.87;0.10;;;;;;;-142.06;100.00;64312.41;5054981;28;20193;-82
2023/12/23 04:04:40;;;;;;;0.20;0.20;;;;;;;-142.06;100.00;64312.41;5021615;28;20693;-81
2023/12/23 04:07:07;;;;;;;0.20;0.20;;;;;;;-142.06;100.00;64312.41;5022190;28;20212;-80
2023/12/23 04:09:33;;;;;;;0.50;0.40;;;;;;;-142.06;100.00;64312.41;5037858;28;20289;-80
2023/12/23 04:12:00;;;;;;;0.50;0.50;;;;;;;-142.06;100.00;64312.41;5038228;28;20247;-81
2023/12/23 04:14:28;;;;;;;0.73;0.70;;;;;;;-142.06;100.00;64312.41;5021564;28;20267;-80
2023/12/23 04:16:55;;;;;;;0.60;0.60;;;;;;;-142.06;100.00;64312.41;5022382;28;20185;-80
2023/12/23 04:19:22;;;;;;;0.63;0.63;;;;;;;-142.06;100.00;64312.41;5054233;28;20203;-81
2023/12/23 04:21:48;;;;;;;0.87;0.70;;;;;;;-142.06;100.00;64312.41;5021351;28;20198;-81
2023/12/23 04:24:15;;;;;;;0.50;0.50;;;;;;;-142.06;100.00;64312.41;5021236;28;20220;-79
2023/12/23 04:26:42;;;;;;;0.63;0.63;;;;;;;-142.06;100.00;64312.41;5021173;28;20665;-80
2023/12/23 04:29:09;;;;;;;0.63;0.60;;;;;;;-142.06;100.00;64312.41;5037557;28;20189;-81
2023/12/23 04:31:36;;;;;;;0.50;0.50;;;;;;;-142.06;100.00;64312.41;5021292;28;20193;-80
2023/12/23 04:34:03;;;;;;;0.83;0.70;;;;;;;-142.06;100.00;64312.41;5021522;28;20209;-80
2023/12/23 04:36:31;;;;;;;1.47;0.60;;;;;;;-142.06;100.00;64312.41;5037787;28;20237;-80
2023/12/23 04:38:58;;;;;;;0.60;0.60;;;;;;;-142.06;100.00;64312.41;5037459;28;20194;-84
2023/12/23 04:41:25;;;;;;;0.80;0.70;;;;;;;-142.06;100.00;64312.41;5020921;28;20197;-83
2023/12/23 04:43:52;;;;;;;0.80;0.50;;;;;;;-142.06;100.00;64312.41;5021110;28;20214;-80
2023/12/23 04:46:19;;;;;;;0.70;0.70;;;;;;;-142.06;100.00;64312.41;5021091;28;20210;-79
2023/12/23 04:48:46;;;;;;;0.60;0.60;;;;;;;-142.06;100.00;64312.41;5020125;28;20284;-81
2023/12/23 04:51:13;;;;;;;0.73;0.50;;;;;;;-142.06;100.00;64312.41;5053576;28;20280;-80
2023/12/23 04:53:40;;;;;;;0.73;0.50;;;;;;;-142.06;100.00;64312.41;5020524;28;20668;-81
2023/12/23 04:56:07;;;;;;;0.20;0.20;;;;;;;-142.06;100.00;64312.41;5020411;28;20201;-81
2023/12/23 04:58:34;;;;;;;0.90;0.40;;;;;;;-142.06;100.00;64312.41;5053498;28;20193;-80
2023/12/23 05:01:01;;;;;;;0.50;0.40;;;;;;;-142.06;100.00;64312.41;5020294;28;20676;-82
2023/12/23 05:03:33;;;;;;;0.40;0.40;;;;;;;-142.06;100.00;64312.41;5020038;28;20209;-80
2023/12/23 05:06:00;;;;;;;1.30;0.63;;;;;;;-142.06;100.00;64312.41;5037403;28;20189;-81
2023/12/23 05:08:27;;;;;;;1.00;1.00;;;;;;;-142.06;100.00;64312.41;5053114;28;20189;-82
2023/12/23 05:10:54;;;;;;;0.40;0.20;;;;;;;-142.06;100.00;64312.41;5020240;28;20221;-82
2023/12/23 05:13:23;;;;;;;0.47;0.20;;;;;;;-142.06;100.00;64312.41;5020106;28;20197;-79
2023/12/23 05:15:50;;;;;;;0.10;0.10;;;;;;;-142.06;100.00;64312.41;5052855;28;20268;-79
2023/12/23 05:18:17;;;;;;;0.27;0.07;;;;;;;-142.06;100.00;64312.41;5052962;28;20243;-80
2023/12/23 05:20:44;;;;;;;0.00;0.00;;;;;;;-142.06;100.00;64312.41;5020110;28;20650;-80
2023/12/23 05:23:11;;;;;;;0.10;0.10;;;;;;;-142.06;100.00;64312.41;5020564;28;20216;-79
2023/12/23 05:25:38;;;;;;;0.73;0.07;;;;;;;-142.06;100.00;64312.41;5032141;28;20231;-80
2023/12/23 05:28:05;;;;;;;0.43;0.00;;;;;;;-142.06;100.00;64312.41;5056839;28;20259;-80
2023/12/23 05:30:32;;;;;;;0.00;0.00;;;;;;;-142.06;100.00;64312.41;5033792;28;20291;-80
2023/12/23 05:33:00;;;;;;;0.53;0.17;;;;;;;-142.06;100.00;64312.41;5035037;28;20202;-79
2023/12/23 05:35:27;;;;;;;0.50;0.10;;;;;;;-142.06;100.00;64312.41;5018703;28;20201;-80
2023/12/23 05:37:54;;;;;;;0.03;0.00;;;;;;;-142.06;100.00;64312.41;5033386;28;20201;-79
2023/12/23 05:40:20;;;;;;;0.07;0.07;;;;;;;-142.06;100.00;64312.41;5059403;28;20190;-79
2023/12/23 05:42:47;;;;;;;0.00;0.00;;;;;;;-142.06;100.00;64312.41;5045991;28;20259;-79
2023/12/23 05:45:15;;;;;;;0.10;0.10;;;;;;;-142.06;100.00;64312.41;5040219;28;20229;-79
2023/12/23 05:47:43;;;;;;;0.03;0.03;;;;;;;-142.06;100.00;64312.41;5027723;28;20277;-83
2023/12/23 05:50:10;;;;;;;0.40;0.10;;;;;;;-142.06;100.00;64312.41;5033949;28;20285;-81
2023/12/23 05:52:37;;;;;;;1.03;0.20;;;;;;;-142.06;100.00;64312.41;5051565;28;20193;-81
2023/12/23 05:55:05;;;;;;;0.43;0.30;;;;;;;-142.06;100.00;64312.41;5033300;28;20191;-81
2023/12/23 05:57:31;;;;;;;3.00;0.30;;;;;;;-142.06;100.00;64312.41;5035489;28;20209;-81
2023/12/23 05:59:58;;;;;;;0.20;0.20;;;;;;;-142.06;100.00;64312.41;5018585;28;20235;-80
2023/12/23 06:02:25;;;;;;;0.37;0.10;;;;;;;-142.06;100.00;64312.41;5022202;28;20209;-82
2023/12/23 06:04:52;;;;;;;0.70;0.23;;;;;;;-142.06;100.00;64312.41;5056205;28;20305;-80
2023/12/23 06:07:19;;;;;;;0.80;0.20;;;;;;;-142.06;100.00;64312.41;5053541;28;20239;-80
2023/12/23 06:09:46;;;;;;;0.17;0.17;;;;;;;-142.06;100.00;64312.41;5058849;28;20205;-80
2023/12/23 06:12:12;;;;;;;0.73;0.30;;;;;;;-142.06;100.00;64312.41;5038685;28;20243;-80
2023/12/23 06:14:40;;;;;;;0.40;0.17;;;;;;;-142.06;100.00;64312.41;5053184;28;20203;-81
2023/12/23 06:17:08;;;;;;;0.17;0.17;;;;;;;-142.06;100.00;64312.41;5055522;28;20201;-82
2023/12/23 06:19:35;;;;;;;0.33;0.20;;;;;;;-142.06;100.00;64312.41;5053093;28;20236;-78
2023/12/23 06:22:02;;;;;;;0.87;0.30;;;;;;;-142.06;100.00;64312.41;5054443;28;20194;-79
2023/12/23 06:24:29;;;;;;;0.30;0.30;;;;;;;-142.06;100.00;64312.41;5059715;28;20209;-83
2023/12/23 06:26:55;;;;;;;0.37;0.20;;;;;;;-142.06;100.00;64312.41;5038078;28;20193;-80
2023/12/23 06:29:22;;;;;;;0.73;0.10;;;;;;;-142.06;100.00;64312.41;5054224;28;20205;-80
2023/12/23 06:31:49;;;;;;;0.10;0.10;;;;;;;-142.06;100.00;64312.41;5055698;28;20197;-81
2023/12/23 06:34:16;;;;;;;0.20;0.10;;;;;;;-142.06;100.00;64312.41;5051364;28;20205;-82
2023/12/23 06:36:43;;;;;;;0.93;0.20;;;;;;;-142.06;100.00;64312.41;5037775;28;20225;-80
2023/12/23 06:39:09;;;;;;;0.70;0.10;;;;;;;-142.06;100.00;64312.41;5054844;28;20201;-79
2023/12/23 06:41:36;;;;;;;0.20;0.20;;;;;;;-142.06;100.00;64312.41;5056910;28;20213;-79
2023/12/23 06:44:03;;;;;;;0.30;0.10;;;;;;;-142.06;100.00;64312.41;5037171;28;20217;-81
2023/12/23 06:46:30;;;;;;;0.10;0.10;;;;;;;-142.06;100.00;64312.41;5053758;28;20212;-80
2023/12/23 06:48:57;;;;;;;0.20;0.10;;;;;;;-142.06;100.00;64312.41;5054908;28;20263;-81
2023/12/23 06:51:24;;;;;;;1.00;0.10;;;;;;;-142.06;100.00;64312.41;5054802;28;20309;-78
2023/12/23 06:53:51;;;;;;;0.40;0.17;;;;;;;-142.06;100.00;64312.41;5053046;28;20196;-78
2023/12/23 06:56:18;;;;;;;0.47;0.17;;;;;;;-142.06;100.00;64312.41;5054323;28;20201;-79
2023/12/23 06:58:45;;;;;;;0.53;0.20;;;;;;;-142.06;100.00;64312.41;5051530;28;20202;-79
2023/12/23 07:01:12;;;;;;;0.53;0.17;;;;;;;-142.06;100.00;64312.41;5054635;28;20197;-80
2023/12/23 07:03:41;;;;;;;1.83;0.27;;;;;;;-142.06;100.00;64312.41;5054188;28;20205;-80
2023/12/23 07:06:11;;;;;;;0.57;0.30;;;;;;;-142.06;100.00;64312.41;5050394;28;20701;-80
2023/12/23 07:08:39;;;;;;;1.43;0.20;;;;;;;-142.06;100.00;64312.41;5052609;28;20239;-80
2023/12/23 07:11:08;;;;;;;0.23;0.20;;;;;;;-142.06;100.00;64312.41;5053467;28;20193;-80
2023/12/23 07:13:35;;;;;;;1.03;0.20;;;;;;;-142.06;100.00;64312.41;5055302;28;20280;-79
2023/12/23 07:16:02;;;;;;;0.50;0.10;;;;;;;-142.06;100.00;64312.41;5051225;28;20197;-79
2023/12/23 07:18:29;;;;;;;0.40;0.30;;;;;;;-142.06;100.00;64312.41;5052530;28;20193;-78
2023/12/23 07:20:56;;;;;;;0.40;0.20;;;;;;;-142.06;100.00;64312.41;5056802;28;20216;-78
2023/12/23 07:23:23;;;;;;;0.57;0.20;;;;;;;-142.06;100.00;64312.41;5052630;28;20197;-80
2023/12/23 07:25:50;;;;;;;0.50;0.20;;;;;;;-142.06;100.00;64312.41;5052609;28;20229;-79
2023/12/23 07:28:17;;;;;;;1.30;0.30;;;;;;;-142.06;100.00;64312.41;5051173;28;20201;-78
2023/12/23 07:30:44;;;;;;;0.67;0.20;;;;;;;-142.06;100.00;64312.41;5050523;28;20201;-79
2023/12/23 07:33:12;;;;;;;0.20;0.13;;;;;;;-142.06;100.00;64312.41;5058230;28;20198;-79
2023/12/23 07:35:40;;;;;;;0.50;0.30;;;;;;;-142.06;100.00;64312.41;5057876;28;20261;-81
2023/12/23 07:38:08;;;;;;;0.43;0.23;;;;;;;-142.06;100.00;64312.41;5061375;28;20193;-82
2023/12/23 07:40:36;;;;;;;0.47;0.30;;;;;;;-142.06;100.00;64312.41;5055372;28;20269;-80
2023/12/23 07:43:03;;;;;;;1.20;0.30;;;;;;;-142.06;100.00;64312.41;5056580;28;20224;-82
2023/12/23 07:45:30;;;;;;;0.80;0.30;;;;;;;-142.06;100.00;64312.41;5035143;28;20728;-82
2023/12/23 07:47:57;;;;;;;0.63;0.23;;;;;;;-142.06;100.00;64312.41;5035907;28;20205;-80
2023/12/23 07:50:24;;;;;;;2.57;0.37;;;;;;;-142.06;100.00;64312.41;5051589;28;20201;-83
2023/12/23 07:52:51;;;;;;;0.43;0.30;;;;;;;-142.06;100.00;64312.41;5054220;28;20277;-80
2023/12/23 07:55:18;;;;;;;0.60;0.20;;;;;;;-142.06;100.00;64312.41;5054523;28;20684;-82
2023/12/23 07:57:45;;;;;;;1.03;0.30;;;;;;;-142.06;100.00;64312.41;5038417;28;20220;-82
2023/12/23 08:00:14;;;;;;;1.70;0.33;;;;;;;-142.06;100.00;64312.41;5054644;28;20201;-81
2023/12/23 08:02:40;;;;;;;3.50;0.40;;;;;;;-142.06;100.00;64312.41;5052471;28;20225;-82
2023/12/23 08:05:07;;;;;;;0.97;0.30;;;;;;;-142.06;100.00;64312.41;5031878;28;20208;-80
2023/12/23 08:07:36;;;;;;;1.03;0.30;;;;;;;-142.06;100.00;64312.41;5034046;28;20202;-80
2023/12/23 08:10:04;;;;;;;0.93;0.30;;;;;;;-142.06;100.00;64312.41;5051501;28;20854;-80
2023/12/23 08:12:31;;;;;;;2.23;0.30;;;;;;;-142.06;100.00;64312.41;5050143;28;20202;-82
2023/12/23 08:14:58;;;;;;;0.80;0.50;;;;;;;-142.06;100.00;64312.41;5050999;28;20193;-80
2023/12/23 08:17:24;;;;;;;0.50;0.50;;;;;;;-142.06;100.00;64312.41;5051422;28;20189;-79
2023/12/23 08:19:51;;;;;;;0.50;0.30;;;;;;;-142.06;100.00;64312.41;5049640;28;20194;-82
2023/12/23 08:22:18;;;;;;;1.67;0.30;;;;;;;-142.06;100.00;64312.41;5033831;28;20281;-81
2023/12/23 08:24:45;;;;;;;1.00;0.40;;;;;;;-142.06;100.00;64312.41;5048548;28;20682;-80
2023/12/23 08:27:13;;;;;;;1.27;0.40;;;;;;;-142.06;100.00;64312.41;5025782;28;20678;-80
2023/12/23 08:29:40;;;;;;;0.93;0.30;;;;;;;-142.06;100.00;64312.41;5050831;28;20251;-80
2023/12/23 08:32:07;;;;;;;1.73;0.47;;;;;;;-142.06;100.00;64312.41;5051941;28;20194;-80
2023/12/23 08:34:33;;;;;;;2.37;0.40;;;;;;;-142.06;100.00;64312.41;5048333;28;20193;-80
2023/12/23 08:37:00;;;;;;;0.77;0.30;;;;;;;-142.06;100.00;64312.41;5052345;28;20251;-80
2023/12/23 08:39:27;;;;;;;0.93;0.33;;;;;;;-142.06;100.00;64312.41;5049862;28;20209;-81
2023/12/23 08:41:54;;;;;;;0.40;0.20;;;;;;;-142.06;100.00;64312.41;5048115;28;20186;-78
2023/12/23 08:44:21;;;;;;;1.23;0.37;;;;;;;-142.06;100.00;64312.41;5049547;28;20190;-81
2023/12/23 08:46:48;;;;;;;0.80;0.40;;;;;;;-142.06;100.00;64312.41;5046540;28;20233;-80
2023/12/23 08:49:15;;;;;;;2.93;0.50;;;;;;;-142.06;100.00;64312.41;5048839;28;20540;-80
2023/12/23 08:51:43;;;;;;;1.10;0.30;;;;;;;-142.06;100.00;64312.41;5039882;28;20193;-81
2023/12/23 08:54:10;;;;;;;0.50;0.40;;;;;;;-142.06;100.00;64312.41;5032930;28;20194;-84
2023/12/23 08:56:37;;;;;;;5.70;3.67;;;;;;;-142.06;100.00;64312.41;5048331;28;20190;-80
2023/12/23 08:59:04;;;;;;;5.93;1.03;;;;;;;-142.06;100.00;64312.41;5050298;28;20190;-78
2023/12/23 09:01:30;;;;;;;0.90;0.57;;;;;;;-142.06;100.00;64312.41;5031468;28;20259;-80
2023/12/23 09:04:00;;;;;;;1.33;0.50;;;;;;;-142.06;100.00;64312.41;5048071;28;20212;-79
2023/12/23 09:06:27;;;;;;;2.33;0.50;;;;;;;-142.06;100.00;64312.41;5032433;28;20222;-80
2023/12/23 09:08:57;;;;;;;1.20;0.50;;;;;;;-142.06;100.00;64312.41;5047382;28;20198;-80
2023/12/23 09:11:24;;;;;;;1.37;0.30;;;;;;;-142.06;100.00;64312.41;5049822;28;20201;-80
2023/12/23 09:13:51;;;;;;;2.07;0.27;;;;;;;-142.06;100.00;64312.41;5050005;28;20202;-79
2023/12/23 09:16:18;;;;;;;2.27;2.00;;;;;;;-142.06;100.00;64312.41;5048412;28;20194;-79
2023/12/23 09:18:44;;;;;;;0.60;0.57;;;;;;;-142.06;100.00;64312.41;5050450;28;20201;-80
2023/12/23 09:21:11;;;;;;;0.73;0.30;;;;;;;-142.06;100.00;64312.41;5049549;28;20193;-80
2023/12/23 09:23:38;;;;;;;0.30;0.27;;;;;;;-142.06;100.00;64312.41;5026085;28;20201;-80
2023/12/23 09:26:05;;;;;;;3.27;1.10;;;;;;;-142.06;100.00;64312.41;5036356;28;20201;-79
2023/12/23 09:28:32;;;;;;;3.43;0.50;;;;;;;-142.06;100.00;64312.41;5050427;28;20189;-79
2023/12/23 09:30:58;;;;;;;1.47;0.30;;;;;;;-142.06;100.00;64312.41;5050425;28;20650;-81
2023/12/23 09:33:26;;;;;;;0.83;0.50;;;;;;;-142.06;100.00;64312.41;5033615;28;20221;-81
2023/12/23 09:35:53;;;;;;;8.13;2.93;;;;;;;-142.06;100.00;64312.41;5049662;28;20233;-80
2023/12/23 09:38:20;;;;;;;3.30;1.90;;;;;;;-142.06;100.00;64312.41;5049059;28;20221;-79
2023/12/23 09:40:47;;;;;;;1.10;0.97;;;;;;;-142.06;100.00;64312.41;5034941;28;20634;-81
2023/12/23 09:43:15;;;;;;;1.27;1.10;;;;;;;-142.06;100.00;64312.41;5050470;28;20253;-82
2023/12/23 09:45:41;;;;;;;1.13;0.60;;;;;;;-142.06;100.00;64312.41;5042475;28;20213;-79
2023/12/23 09:48:08;;;;;;;0.80;0.40;;;;;;;-142.06;100.00;64312.41;5044326;28;20201;-79
2023/12/23 09:50:35;;;;;;;0.83;0.50;;;;;;;-142.06;100.00;64312.41;5023027;28;20279;-80
2023/12/23 09:53:04;;;;;;;1.93;0.50;;;;;;;-142.06;100.00;64312.41;5045852;28;20201;-79
2023/12/23 09:55:31;;;;;;;1.20;0.50;;;;;;;-142.06;100.00;64312.41;5024691;28;20297;-81
2023/12/23 09:57:59;;;;;;;0.50;0.50;;;;;;;-142.06;100.00;64312.41;5045644;28;20193;-80
2023/12/23 10:00:25;;;;;;;1.10;0.60;;;;;;;-142.06;100.00;64312.41;5032830;28;20247;-81
2023/12/23 10:02:54;;;;;;;1.53;0.60;;;;;;;-142.06;100.00;64312.41;5033542;28;20216;-79
2023/12/23 10:05:21;;;;;;;1.10;0.60;;;;;;;-142.06;100.00;64312.41;5033436;28;20630;-79
2023/12/23 10:07:48;;;;;;;1.57;0.40;;;;;;;-142.06;100.00;64312.41;5017249;28;20209;-81
2023/12/23 10:10:15;;;;;;;1.53;0.73;;;;;;;-142.06;100.00;64312.41;5017652;28;20209;-82
2023/12/23 10:12:41;;;;;;;3.23;2.33;;;;;;;-142.06;100.00;64312.41;5029225;28;20220;-81
2023/12/23 10:15:08;;;;;;;6.63;4.80;;;;;;;-142.06;100.00;64312.41;5034598;28;20190;-80
2023/12/23 10:17:35;;;;;;;6.87;6.17;;;;;;;-142.06;100.00;64312.41;5018773;28;20208;-80
2023/12/23 10:20:03;;;;;;;5.10;4.47;;;;;;;-142.06;100.00;64312.41;5047529;28;20194;-82
2023/12/23 10:22:30;;;;;;;4.70;4.30;;;;;;;-142.06;100.00;64312.41;5036091;28;20212;-80
2023/12/23 10:24:57;;;;;;;5.27;4.47;;;;;;;-142.06;100.00;64312.41;5034613;28;20229;-83
2023/12/23 10:27:26;;;;;;;4.10;3.70;;;;;;;-142.06;100.00;64312.41;5036352;28;20193;-81
2023/12/23 10:29:56;;;;;;;4.10;3.70;;;;;;;-142.06;100.00;64312.41;5033664;28;20225;-83
2023/12/23 10:32:27;;;;;;;3.50;3.20;;;;;;;-142.06;100.00;64312.41;5034820;28;20292;-80
2023/12/23 10:34:59;;;;;;;4.20;3.40;;;;;;;-142.06;100.00;64312.41;5018808;28;20204;-80
2023/12/23 10:37:28;;;;;;;5.93;5.33;;;;;;;-142.06;100.00;64312.41;5018533;28;20272;-80
2023/12/23 10:40:11;;;;;;;7.07;6.37;;;;;;;-142.06;100.00;64312.41;5039291;28;20205;-80
2023/12/23 10:42:39;;;;;;;11.53;8.60;;;;;;;-142.06;100.00;64312.41;5034585;28;20205;-82
2023/12/23 10:45:07;;;;;;;10.67;9.43;;;;;;;-142.06;100.00;64312.41;5034978;28;20690;-80
2023/12/23 10:47:34;;;;;;;11.43;9.27;;;;;;;-142.06;100.00;64312.41;5024432;28;20207;-81
2023/12/23 10:50:03;;;;;;;10.83;8.10;;;;;;;-142.06;100.00;64312.41;5023300;28;20673;-81
2023/12/23 10:52:31;;;;;;;13.90;9.73;;;;;;;-142.06;100.00;64312.41;5038491;28;20272;-82
2023/12/23 10:55:01;;;;;;;14.73;11.17;;;;;;;-142.06;100.00;64312.41;5043484;28;20197;-79
2023/12/23 10:57:28;;;;;;;14.47;10.67;;;;;;;-142.06;100.00;64312.41;5040576;28;20685;-80
2023/12/23 10:59:55;;;;;;;19.30;13.90;;;;;;;-142.06;100.00;64312.41;5028481;28;20657;-80
2023/12/23 11:02:29;;;;;;;16.20;12.60;;;;;;;-142.06;100.00;64312.41;5037367;28;20217;-80
2023/12/23 11:04:58;;;;;;;9.60;7.53;;;;;;;-142.06;100.00;64312.41;5033301;28;20208;-79
2023/12/23 11:07:31;;;;;;;10.20;8.50;;;;;;;-142.06;100.00;64312.41;5056772;28;20301;-80
2023/12/23 11:10:01;;;;;;;6.60;5.90;;;;;;;-142.06;100.00;64312.41;5043547;28;20185;-81